sensor_id;sensor_type;location;lat;lon;timestamp;temperature;humidity
17774;DHT22;9011;33.236;-97.118;2022-09-04T00:02:41;33.90;99.90
17774;DHT22;9011;33.236;-97.118;2022-09-04T00:05:19;33.60;99.90
17774;DHT22;9011;33.236;-97.118;2022-09-04T00:07:58;33.50;99.90
17774;DHT22;9011;33.236;-97.118;2022-09-04T00:10:34;33.50;99.90
17774;DHT22;9011;33.236;-97.118;2022-09-04T00:13:09;33.50;99.90
17774;DHT22;9011;33.236;-97.118;2022-09-04T00:15:42;33.30;99.90
17774;DHT22;9011;33.236;-97.118;2022-09-04T00:18:14;33.20;99.90
17774;DHT22;9011;33.236;-97.118;2022-09-04T00:20:49;33.10;99.90
17774;DHT22;9011;33.236;-97.118;2022-09-04T00:23:23;33.10;99.90
17774;DHT22;9011;33.236;-97.118;2022-09-04T00:26:00;33.00;99.90
17774;DHT22;9011;33.236;-97.118;2022-09-04T00:28:33;33.00;99.90
17774;DHT22;9011;33.236;-97.118;2022-09-04T00:31:11;32.90;99.90
17774;DHT22;9011;33.236;-97.118;2022-09-04T00:33:48;32.50;99.90
17774;DHT22;9011;33.236;-97.118;2022-09-04T00:36:21;32.50;99.90
17774;DHT22;9011;33.236;-97.118;2022-09-04T00:38:55;32.40;99.90
17774;DHT22;9011;33.236;-97.118;2022-09-04T00:41:28;32.40;99.90
17774;DHT22;9011;33.236;-97.118;2022-09-04T00:44:30;32.20;99.90
17774;DHT22;9011;33.236;-97.118;2022-09-04T00:47:31;32.10;99.90
17774;DHT22;9011;33.236;-97.118;2022-09-04T00:50:22;32.10;99.90
17774;DHT22;9011;33.236;-97.118;2022-09-04T00:53:05;32.00;99.90
17774;DHT22;9011;33.236;-97.118;2022-09-04T00:55:52;31.70;99.90
17774;DHT22;9011;33.236;-97.118;2022-09-04T00:58:42;31.60;99.90
17774;DHT22;9011;33.236;-97.118;2022-09-04T01:01:20;31.60;99.90
17774;DHT22;9011;33.236;-97.118;2022-09-04T01:04:17;31.50;99.90
17774;DHT22;9011;33.236;-97.118;2022-09-04T01:06:59;31.50;99.90
17774;DHT22;9011;33.236;-97.118;2022-09-04T01:09:54;31.40;99.90
17774;DHT22;9011;33.236;-97.118;2022-09-04T01:12:35;31.40;99.90
17774;DHT22;9011;33.236;-97.118;2022-09-04T01:15:12;31.30;99.90
17774;DHT22;9011;33.236;-97.118;2022-09-04T01:17:52;31.30;99.90
17774;DHT22;9011;33.236;-97.118;2022-09-04T01:20:41;31.20;99.90
17774;DHT22;9011;33.236;-97.118;2022-09-04T01:23:35;31.20;99.90
17774;DHT22;9011;33.236;-97.118;2022-09-04T01:26:14;31.00;99.90
17774;DHT22;9011;33.236;-97.118;2022-09-04T01:28:57;30.90;99.90
17774;DHT22;9011;33.236;-97.118;2022-09-04T01:31:35;30.90;99.90
17774;DHT22;9011;33.236;-97.118;2022-09-04T01:34:17;30.80;99.90
17774;DHT22;9011;33.236;-97.118;2022-09-04T01:36:55;30.70;99.90
17774;DHT22;9011;33.236;-97.118;2022-09-04T01:39:27;30.60;99.90
17774;DHT22;9011;33.236;-97.118;2022-09-04T01:42:02;30.50;99.90
17774;DHT22;9011;33.236;-97.118;2022-09-04T01:44:32;30.40;99.90
17774;DHT22;9011;33.236;-97.118;2022-09-04T01:47:10;30.40;99.90
17774;DHT22;9011;33.236;-97.118;2022-09-04T01:49:46;30.30;99.90
17774;DHT22;9011;33.236;-97.118;2022-09-04T01:52:33;30.20;99.90
17774;DHT22;9011;33.236;-97.118;2022-09-04T01:55:13;30.10;99.90
17774;DHT22;9011;33.236;-97.118;2022-09-04T01:57:58;30.00;99.90
17774;DHT22;9011;33.236;-97.118;2022-09-04T02:00:33;30.00;99.90
17774;DHT22;9011;33.236;-97.118;2022-09-04T02:03:11;29.90;99.90
17774;DHT22;9011;33.236;-97.118;2022-09-04T02:05:54;29.90;99.90
17774;DHT22;9011;33.236;-97.118;2022-09-04T02:08:40;29.80;99.90
17774;DHT22;9011;33.236;-97.118;2022-09-04T02:11:14;29.70;99.90
17774;DHT22;9011;33.236;-97.118;2022-09-04T02:14:02;29.70;99.90
17774;DHT22;9011;33.236;-97.118;2022-09-04T02:16:44;29.60;99.90
17774;DHT22;9011;33.236;-97.118;2022-09-04T02:19:21;29.50;99.90
17774;DHT22;9011;33.236;-97.118;2022-09-04T02:22:02;29.40;99.90
17774;DHT22;9011;33.236;-97.118;2022-09-04T02:24:47;29.40;99.90
17774;DHT22;9011;33.236;-97.118;2022-09-04T02:27:26;29.30;99.90
17774;DHT22;9011;33.236;-97.118;2022-09-04T02:30:00;29.30;99.90
17774;DHT22;9011;33.236;-97.118;2022-09-04T02:32:34;29.20;99.90
17774;DHT22;9011;33.236;-97.118;2022-09-04T02:35:11;29.20;99.90
17774;DHT22;9011;33.236;-97.118;2022-09-04T02:37:50;29.20;99.90
17774;DHT22;9011;33.236;-97.118;2022-09-04T02:40:29;29.20;99.90
17774;DHT22;9011;33.236;-97.118;2022-09-04T02:43:12;29.10;99.90
17774;DHT22;9011;33.236;-97.118;2022-09-04T02:45:49;29.00;99.90
17774;DHT22;9011;33.236;-97.118;2022-09-04T02:48:30;29.00;99.90
17774;DHT22;9011;33.236;-97.118;2022-09-04T02:51:12;28.90;99.90
17774;DHT22;9011;33.236;-97.118;2022-09-04T02:53:50;28.90;99.90
17774;DHT22;9011;33.236;-97.118;2022-09-04T02:56:26;28.80;99.90
17774;DHT22;9011;33.236;-97.118;2022-09-04T02:59:13;28.80;99.90
17774;DHT22;9011;33.236;-97.118;2022-09-04T03:01:47;28.70;99.90
17774;DHT22;9011;33.236;-97.118;2022-09-04T03:04:23;28.70;99.90
17774;DHT22;9011;33.236;-97.118;2022-09-04T03:07:02;28.70;99.90
17774;DHT22;9011;33.236;-97.118;2022-09-04T03:09:38;28.60;99.90
17774;DHT22;9011;33.236;-97.118;2022-09-04T03:12:26;28.60;99.90
17774;DHT22;9011;33.236;-97.118;2022-09-04T03:15:03;28.60;99.90
17774;DHT22;9011;33.236;-97.118;2022-09-04T03:17:43;28.60;99.90
17774;DHT22;9011;33.236;-97.118;2022-09-04T03:20:19;28.50;99.90
17774;DHT22;9011;33.236;-97.118;2022-09-04T03:22:55;28.50;99.90
17774;DHT22;9011;33.236;-97.118;2022-09-04T03:25:49;28.50;99.90
17774;DHT22;9011;33.236;-97.118;2022-09-04T03:28:24;28.40;99.90
17774;DHT22;9011;33.236;-97.118;2022-09-04T03:30:56;28.40;99.90
17774;DHT22;9011;33.236;-97.118;2022-09-04T03:33:33;28.40;99.90
17774;DHT22;9011;33.236;-97.118;2022-09-04T03:36:11;28.30;99.90
17774;DHT22;9011;33.236;-97.118;2022-09-04T03:38:47;28.30;99.90
17774;DHT22;9011;33.236;-97.118;2022-09-04T03:41:24;28.30;99.90
17774;DHT22;9011;33.236;-97.118;2022-09-04T03:44:08;28.20;99.90
17774;DHT22;9011;33.236;-97.118;2022-09-04T03:46:48;28.30;99.90
17774;DHT22;9011;33.236;-97.118;2022-09-04T03:49:32;28.20;99.90
17774;DHT22;9011;33.236;-97.118;2022-09-04T03:52:15;28.20;99.90
17774;DHT22;9011;33.236;-97.118;2022-09-04T03:54:57;28.10;99.90
17774;DHT22;9011;33.236;-97.118;2022-09-04T03:57:58;28.10;99.90
17774;DHT22;9011;33.236;-97.118;2022-09-04T04:00:35;28.10;99.90
17774;DHT22;9011;33.236;-97.118;2022-09-04T04:03:22;28.00;99.90
17774;DHT22;9011;33.236;-97.118;2022-09-04T04:06:03;28.00;99.90
17774;DHT22;9011;33.236;-97.118;2022-09-04T04:08:47;28.00;99.90
17774;DHT22;9011;33.236;-97.118;2022-09-04T04:11:37;27.90;99.90
17774;DHT22;9011;33.236;-97.118;2022-09-04T04:14:35;27.80;99.90
17774;DHT22;9011;33.236;-97.118;2022-09-04T04:17:37;27.80;99.90
17774;DHT22;9011;33.236;-97.118;2022-09-04T04:20:20;27.80;99.90
17774;DHT22;9011;33.236;-97.118;2022-09-04T04:25:59;27.70;99.90
17774;DHT22;9011;33.236;-97.118;2022-09-04T04:28:47;27.60;99.90
17774;DHT22;9011;33.236;-97.118;2022-09-04T04:31:34;27.70;99.90
17774;DHT22;9011;33.236;-97.118;2022-09-04T04:34:14;27.70;99.90
17774;DHT22;9011;33.236;-97.118;2022-09-04T04:36:51;27.70;99.90
17774;DHT22;9011;33.236;-97.118;2022-09-04T04:39:30;27.60;99.90
17774;DHT22;9011;33.236;-97.118;2022-09-04T04:42:13;27.70;99.90
17774;DHT22;9011;33.236;-97.118;2022-09-04T04:45:05;27.70;99.90
17774;DHT22;9011;33.236;-97.118;2022-09-04T04:48:15;27.70;99.90
17774;DHT22;9011;33.236;-97.118;2022-09-04T04:50:56;27.70;99.90
17774;DHT22;9011;33.236;-97.118;2022-09-04T04:53:31;27.80;99.90
17774;DHT22;9011;33.236;-97.118;2022-09-04T04:56:07;27.80;99.90
17774;DHT22;9011;33.236;-97.118;2022-09-04T04:58:51;27.80;99.90
17774;DHT22;9011;33.236;-97.118;2022-09-04T05:01:31;27.70;99.90
17774;DHT22;9011;33.236;-97.118;2022-09-04T05:04:12;27.70;99.90
17774;DHT22;9011;33.236;-97.118;2022-09-04T05:06:48;27.60;99.90
17774;DHT22;9011;33.236;-97.118;2022-09-04T05:09:24;27.70;99.90
17774;DHT22;9011;33.236;-97.118;2022-09-04T05:12:05;27.70;99.90
17774;DHT22;9011;33.236;-97.118;2022-09-04T05:14:41;27.60;99.90
17774;DHT22;9011;33.236;-97.118;2022-09-04T05:17:20;27.70;99.90
17774;DHT22;9011;33.236;-97.118;2022-09-04T05:20:11;27.60;99.90
17774;DHT22;9011;33.236;-97.118;2022-09-04T05:22:45;27.60;99.90
17774;DHT22;9011;33.236;-97.118;2022-09-04T05:25:22;27.60;99.90
17774;DHT22;9011;33.236;-97.118;2022-09-04T05:27:59;27.50;99.90
17774;DHT22;9011;33.236;-97.118;2022-09-04T05:30:37;27.50;99.90
17774;DHT22;9011;33.236;-97.118;2022-09-04T05:33:15;27.40;99.90
17774;DHT22;9011;33.236;-97.118;2022-09-04T05:35:49;27.40;99.90
17774;DHT22;9011;33.236;-97.118;2022-09-04T05:38:25;27.40;99.90
17774;DHT22;9011;33.236;-97.118;2022-09-04T05:41:03;27.20;99.90
17774;DHT22;9011;33.236;-97.118;2022-09-04T05:43:56;27.30;99.90
17774;DHT22;9011;33.236;-97.118;2022-09-04T05:46:42;27.40;99.90
17774;DHT22;9011;33.236;-97.118;2022-09-04T05:49:19;27.40;99.90
17774;DHT22;9011;33.236;-97.118;2022-09-04T05:52:15;27.00;99.90
17774;DHT22;9011;33.236;-97.118;2022-09-04T05:55:20;27.10;99.90
17774;DHT22;9011;33.236;-97.118;2022-09-04T05:58:14;27.00;99.90
17774;DHT22;9011;33.236;-97.118;2022-09-04T06:00:55;26.80;99.90
17774;DHT22;9011;33.236;-97.118;2022-09-04T06:06:37;26.70;99.90
17774;DHT22;9011;33.236;-97.118;2022-09-04T06:09:30;26.70;99.90
17774;DHT22;9011;33.236;-97.118;2022-09-04T06:15:14;26.70;99.90
17774;DHT22;9011;33.236;-97.118;2022-09-04T06:18:03;26.50;99.90
17774;DHT22;9011;33.236;-97.118;2022-09-04T06:20:51;26.60;99.90
17774;DHT22;9011;33.236;-97.118;2022-09-04T06:23:50;26.50;99.90
17774;DHT22;9011;33.236;-97.118;2022-09-04T06:26:36;26.30;99.90
17774;DHT22;9011;33.236;-97.118;2022-09-04T06:29:22;26.30;99.90
17774;DHT22;9011;33.236;-97.118;2022-09-04T06:32:12;26.30;99.90
17774;DHT22;9011;33.236;-97.118;2022-09-04T06:34:55;26.30;99.90
17774;DHT22;9011;33.236;-97.118;2022-09-04T06:37:36;26.20;99.90
17774;DHT22;9011;33.236;-97.118;2022-09-04T06:40:24;26.20;99.90
17774;DHT22;9011;33.236;-97.118;2022-09-04T06:43:04;26.20;99.90
17774;DHT22;9011;33.236;-97.118;2022-09-04T06:45:44;26.30;99.90
17774;DHT22;9011;33.236;-97.118;2022-09-04T06:48:29;26.30;99.90
17774;DHT22;9011;33.236;-97.118;2022-09-04T06:51:12;26.10;99.90
17774;DHT22;9011;33.236;-97.118;2022-09-04T06:53:53;26.10;99.90
17774;DHT22;9011;33.236;-97.118;2022-09-04T06:56:45;26.00;99.90
17774;DHT22;9011;33.236;-97.118;2022-09-04T06:59:50;25.80;99.90
17774;DHT22;9011;33.236;-97.118;2022-09-04T07:05:20;25.70;99.90
17774;DHT22;9011;33.236;-97.118;2022-09-04T07:08:03;25.70;99.90
17774;DHT22;9011;33.236;-97.118;2022-09-04T07:10:41;25.70;99.90
17774;DHT22;9011;33.236;-97.118;2022-09-04T07:16:31;25.60;99.90
17774;DHT22;9011;33.236;-97.118;2022-09-04T07:22:46;25.80;99.90
17774;DHT22;9011;33.236;-97.118;2022-09-04T07:25:25;25.80;99.90
17774;DHT22;9011;33.236;-97.118;2022-09-04T07:28:09;25.80;99.90
17774;DHT22;9011;33.236;-97.118;2022-09-04T07:30:43;25.80;99.90
17774;DHT22;9011;33.236;-97.118;2022-09-04T07:33:20;25.70;99.90
17774;DHT22;9011;33.236;-97.118;2022-09-04T07:35:56;25.70;99.90
17774;DHT22;9011;33.236;-97.118;2022-09-04T07:38:33;25.60;99.90
17774;DHT22;9011;33.236;-97.118;2022-09-04T07:41:11;25.50;99.90
17774;DHT22;9011;33.236;-97.118;2022-09-04T07:43:47;25.40;99.90
17774;DHT22;9011;33.236;-97.118;2022-09-04T07:46:21;25.40;99.90
17774;DHT22;9011;33.236;-97.118;2022-09-04T07:48:57;25.30;99.90
17774;DHT22;9011;33.236;-97.118;2022-09-04T07:51:35;25.30;99.90
17774;DHT22;9011;33.236;-97.118;2022-09-04T07:54:36;25.30;99.90
17774;DHT22;9011;33.236;-97.118;2022-09-04T07:57:35;25.20;99.90
17774;DHT22;9011;33.236;-97.118;2022-09-04T08:00:09;25.10;99.90
17774;DHT22;9011;33.236;-97.118;2022-09-04T08:03:16;25.20;99.90
17774;DHT22;9011;33.236;-97.118;2022-09-04T08:05:50;25.20;99.90
17774;DHT22;9011;33.236;-97.118;2022-09-04T08:11:35;25.20;99.90
17774;DHT22;9011;33.236;-97.118;2022-09-04T08:14:19;25.20;99.90
17774;DHT22;9011;33.236;-97.118;2022-09-04T08:16:57;25.10;99.90
17774;DHT22;9011;33.236;-97.118;2022-09-04T08:19:40;25.10;99.90
17774;DHT22;9011;33.236;-97.118;2022-09-04T08:22:21;25.10;99.90
17774;DHT22;9011;33.236;-97.118;2022-09-04T08:28:02;25.00;99.90
17774;DHT22;9011;33.236;-97.118;2022-09-04T08:30:40;24.90;99.90
17774;DHT22;9011;33.236;-97.118;2022-09-04T08:33:28;25.00;99.90
17774;DHT22;9011;33.236;-97.118;2022-09-04T08:36:00;24.90;99.90
17774;DHT22;9011;33.236;-97.118;2022-09-04T08:38:55;25.00;99.90
17774;DHT22;9011;33.236;-97.118;2022-09-04T08:48:02;24.80;99.90
17774;DHT22;9011;33.236;-97.118;2022-09-04T08:56:40;24.70;99.90
17774;DHT22;9011;33.236;-97.118;2022-09-04T08:59:44;24.70;99.90
17774;DHT22;9011;33.236;-97.118;2022-09-04T09:06:03;24.70;99.90
17774;DHT22;9011;33.236;-97.118;2022-09-04T09:12:07;24.50;99.90
17774;DHT22;9011;33.236;-97.118;2022-09-04T09:15:12;24.50;99.90
17774;DHT22;9011;33.236;-97.118;2022-09-04T09:17:59;24.40;99.90
17774;DHT22;9011;33.236;-97.118;2022-09-04T09:20:29;24.50;99.90
17774;DHT22;9011;33.236;-97.118;2022-09-04T09:23:18;24.40;99.90
17774;DHT22;9011;33.236;-97.118;2022-09-04T09:25:51;24.50;99.90
17774;DHT22;9011;33.236;-97.118;2022-09-04T09:28:51;24.40;99.90
17774;DHT22;9011;33.236;-97.118;2022-09-04T09:32:00;24.40;99.90
17774;DHT22;9011;33.236;-97.118;2022-09-04T09:44:09;24.40;99.90
17774;DHT22;9011;33.236;-97.118;2022-09-04T09:50:27;24.30;99.90
17774;DHT22;9011;33.236;-97.118;2022-09-04T09:53:40;24.10;99.90
17774;DHT22;9011;33.236;-97.118;2022-09-04T09:56:31;24.20;99.90
17774;DHT22;9011;33.236;-97.118;2022-09-04T10:05:47;24.00;99.90
17774;DHT22;9011;33.236;-97.118;2022-09-04T10:08:36;24.00;99.90
17774;DHT22;9011;33.236;-97.118;2022-09-04T10:27:29;24.00;99.90
17774;DHT22;9011;33.236;-97.118;2022-09-04T10:30:05;24.00;99.90
17774;DHT22;9011;33.236;-97.118;2022-09-04T10:33:03;24.00;99.90
17774;DHT22;9011;33.236;-97.118;2022-09-04T10:35:51;23.90;99.90
17774;DHT22;9011;33.236;-97.118;2022-09-04T10:38:27;23.90;99.90
17774;DHT22;9011;33.236;-97.118;2022-09-04T10:41:24;24.00;99.90
17774;DHT22;9011;33.236;-97.118;2022-09-04T10:44:35;24.00;99.90
17774;DHT22;9011;33.236;-97.118;2022-09-04T10:47:16;24.00;99.90
17774;DHT22;9011;33.236;-97.118;2022-09-04T10:50:07;24.00;99.90
17774;DHT22;9011;33.236;-97.118;2022-09-04T10:53:03;24.00;99.90
17774;DHT22;9011;33.236;-97.118;2022-09-04T10:55:50;23.90;99.90
17774;DHT22;9011;33.236;-97.118;2022-09-04T10:58:40;23.90;99.90
17774;DHT22;9011;33.236;-97.118;2022-09-04T11:04:46;24.00;99.90
17774;DHT22;9011;33.236;-97.118;2022-09-04T11:11:04;24.10;99.90
17774;DHT22;9011;33.236;-97.118;2022-09-04T11:13:54;24.10;99.90
17774;DHT22;9011;33.236;-97.118;2022-09-04T11:17:02;24.00;99.90
17774;DHT22;9011;33.236;-97.118;2022-09-04T11:20:11;24.10;99.90
17774;DHT22;9011;33.236;-97.118;2022-09-04T11:23:11;24.20;99.90
17774;DHT22;9011;33.236;-97.118;2022-09-04T11:26:20;24.20;99.90
17774;DHT22;9011;33.236;-97.118;2022-09-04T11:29:17;24.20;99.90
17774;DHT22;9011;33.236;-97.118;2022-09-04T11:32:07;24.10;99.90
17774;DHT22;9011;33.236;-97.118;2022-09-04T11:37:57;24.10;99.90
17774;DHT22;9011;33.236;-97.118;2022-09-04T11:43:33;24.00;99.90
17774;DHT22;9011;33.236;-97.118;2022-09-04T11:46:28;23.90;99.90
17774;DHT22;9011;33.236;-97.118;2022-09-04T11:52:21;23.90;99.90
17774;DHT22;9011;33.236;-97.118;2022-09-04T11:55:14;23.80;99.90
17774;DHT22;9011;33.236;-97.118;2022-09-04T11:57:56;23.80;99.90
17774;DHT22;9011;33.236;-97.118;2022-09-04T12:00:28;23.80;99.90
17774;DHT22;9011;33.236;-97.118;2022-09-04T12:06:15;23.90;99.90
17774;DHT22;9011;33.236;-97.118;2022-09-04T12:15:29;23.80;99.90
17774;DHT22;9011;33.236;-97.118;2022-09-04T12:26:59;23.70;99.90
17774;DHT22;9011;33.236;-97.118;2022-09-04T12:29:55;23.70;99.90
17774;DHT22;9011;33.236;-97.118;2022-09-04T12:32:44;23.80;99.90
17774;DHT22;9011;33.236;-97.118;2022-09-04T12:35:44;23.90;99.90
17774;DHT22;9011;33.236;-97.118;2022-09-04T12:38:47;23.90;99.90
17774;DHT22;9011;33.236;-97.118;2022-09-04T12:41:29;23.90;99.90
17774;DHT22;9011;33.236;-97.118;2022-09-04T12:44:06;23.80;99.90
17774;DHT22;9011;33.236;-97.118;2022-09-04T12:46:52;23.80;99.90
17774;DHT22;9011;33.236;-97.118;2022-09-04T12:49:39;23.80;99.90
17774;DHT22;9011;33.236;-97.118;2022-09-04T12:52:17;23.80;99.90
17774;DHT22;9011;33.236;-97.118;2022-09-04T12:54:57;23.90;99.90
17774;DHT22;9011;33.236;-97.118;2022-09-04T12:57:35;23.90;99.90
17774;DHT22;9011;33.236;-97.118;2022-09-04T13:00:08;23.90;99.90
17774;DHT22;9011;33.236;-97.118;2022-09-04T13:02:47;24.00;99.90
17774;DHT22;9011;33.236;-97.118;2022-09-04T13:05:43;24.00;99.90
17774;DHT22;9011;33.236;-97.118;2022-09-04T13:08:24;24.10;99.90
17774;DHT22;9011;33.236;-97.118;2022-09-04T13:11:06;24.30;99.90
17774;DHT22;9011;33.236;-97.118;2022-09-04T13:13:49;24.30;99.90
17774;DHT22;9011;33.236;-97.118;2022-09-04T13:16:26;24.40;99.90
17774;DHT22;9011;33.236;-97.118;2022-09-04T13:19:05;24.50;99.90
17774;DHT22;9011;33.236;-97.118;2022-09-04T13:21:51;24.70;99.90
17774;DHT22;9011;33.236;-97.118;2022-09-04T13:24:33;24.80;99.90
17774;DHT22;9011;33.236;-97.118;2022-09-04T13:27:14;24.80;99.90
17774;DHT22;9011;33.236;-97.118;2022-09-04T13:30:02;24.90;99.90
17774;DHT22;9011;33.236;-97.118;2022-09-04T13:35:48;25.10;99.90
17774;DHT22;9011;33.236;-97.118;2022-09-04T13:41:28;25.30;99.90
17774;DHT22;9011;33.236;-97.118;2022-09-04T13:47:10;25.30;99.90
17774;DHT22;9011;33.236;-97.118;2022-09-04T13:49:43;25.50;99.90
17774;DHT22;9011;33.236;-97.118;2022-09-04T13:52:17;25.60;99.90
17774;DHT22;9011;33.236;-97.118;2022-09-04T13:54:53;25.70;99.90
17774;DHT22;9011;33.236;-97.118;2022-09-04T13:57:27;25.80;99.90
17774;DHT22;9011;33.236;-97.118;2022-09-04T14:00:00;25.90;99.90
17774;DHT22;9011;33.236;-97.118;2022-09-04T14:02:31;26.00;99.90
17774;DHT22;9011;33.236;-97.118;2022-09-04T14:05:06;26.10;99.90
17774;DHT22;9011;33.236;-97.118;2022-09-04T14:07:38;26.20;99.90
17774;DHT22;9011;33.236;-97.118;2022-09-04T14:10:11;26.30;99.90
17774;DHT22;9011;33.236;-97.118;2022-09-04T14:13:03;26.40;99.90
17774;DHT22;9011;33.236;-97.118;2022-09-04T14:15:56;26.50;99.90
17774;DHT22;9011;33.236;-97.118;2022-09-04T14:18:48;26.70;99.90
17774;DHT22;9011;33.236;-97.118;2022-09-04T14:21:29;26.70;99.90
17774;DHT22;9011;33.236;-97.118;2022-09-04T14:24:04;26.90;99.90
17774;DHT22;9011;33.236;-97.118;2022-09-04T14:26:39;27.00;99.90
17774;DHT22;9011;33.236;-97.118;2022-09-04T14:29:18;27.20;99.90
17774;DHT22;9011;33.236;-97.118;2022-09-04T14:31:55;27.30;99.90
17774;DHT22;9011;33.236;-97.118;2022-09-04T14:34:34;27.30;99.90
17774;DHT22;9011;33.236;-97.118;2022-09-04T14:37:11;27.30;99.90
17774;DHT22;9011;33.236;-97.118;2022-09-04T14:39:47;27.40;99.90
17774;DHT22;9011;33.236;-97.118;2022-09-04T14:42:38;27.50;99.90
17774;DHT22;9011;33.236;-97.118;2022-09-04T14:45:21;27.80;99.90
17774;DHT22;9011;33.236;-97.118;2022-09-04T14:47:57;27.90;99.90
17774;DHT22;9011;33.236;-97.118;2022-09-04T14:50:42;28.20;99.90
17774;DHT22;9011;33.236;-97.118;2022-09-04T14:53:19;28.20;99.90
17774;DHT22;9011;33.236;-97.118;2022-09-04T14:56:23;28.40;99.90
17774;DHT22;9011;33.236;-97.118;2022-09-04T14:58:59;28.50;99.90
17774;DHT22;9011;33.236;-97.118;2022-09-04T15:01:31;28.70;99.90
17774;DHT22;9011;33.236;-97.118;2022-09-04T15:04:05;28.70;99.90
17774;DHT22;9011;33.236;-97.118;2022-09-04T15:06:41;28.90;99.90
17774;DHT22;9011;33.236;-97.118;2022-09-04T15:09:18;29.10;99.90
17774;DHT22;9011;33.236;-97.118;2022-09-04T15:11:49;29.10;99.90
17774;DHT22;9011;33.236;-97.118;2022-09-04T15:14:26;29.00;99.90
17774;DHT22;9011;33.236;-97.118;2022-09-04T15:17:01;29.30;99.90
17774;DHT22;9011;33.236;-97.118;2022-09-04T15:19:40;29.20;99.90
17774;DHT22;9011;33.236;-97.118;2022-09-04T15:22:17;29.40;99.90
17774;DHT22;9011;33.236;-97.118;2022-09-04T15:24:51;29.60;99.90
17774;DHT22;9011;33.236;-97.118;2022-09-04T15:27:26;29.70;99.90
17774;DHT22;9011;33.236;-97.118;2022-09-04T15:30:03;29.80;99.90
17774;DHT22;9011;33.236;-97.118;2022-09-04T15:32:34;29.90;99.90
17774;DHT22;9011;33.236;-97.118;2022-09-04T15:35:13;29.90;99.90
17774;DHT22;9011;33.236;-97.118;2022-09-04T15:37:46;30.20;99.90
17774;DHT22;9011;33.236;-97.118;2022-09-04T15:40:23;30.30;99.90
17774;DHT22;9011;33.236;-97.118;2022-09-04T15:43:02;30.50;99.90
17774;DHT22;9011;33.236;-97.118;2022-09-04T15:45:41;30.60;99.90
17774;DHT22;9011;33.236;-97.118;2022-09-04T15:48:26;30.60;99.90
17774;DHT22;9011;33.236;-97.118;2022-09-04T15:51:10;30.80;99.90
17774;DHT22;9011;33.236;-97.118;2022-09-04T15:53:46;31.00;99.90
17774;DHT22;9011;33.236;-97.118;2022-09-04T15:56:31;31.10;99.90
17774;DHT22;9011;33.236;-97.118;2022-09-04T15:59:08;31.30;99.90
17774;DHT22;9011;33.236;-97.118;2022-09-04T16:01:49;31.50;99.90
17774;DHT22;9011;33.236;-97.118;2022-09-04T16:04:24;31.10;99.90
17774;DHT22;9011;33.236;-97.118;2022-09-04T16:07:13;31.50;99.90
17774;DHT22;9011;33.236;-97.118;2022-09-04T16:09:50;31.50;99.90
17774;DHT22;9011;33.236;-97.118;2022-09-04T16:12:22;31.50;99.90
17774;DHT22;9011;33.236;-97.118;2022-09-04T16:14:55;31.70;99.90
17774;DHT22;9011;33.236;-97.118;2022-09-04T16:17:27;32.00;99.90
17774;DHT22;9011;33.236;-97.118;2022-09-04T16:20:01;32.00;99.90
17774;DHT22;9011;33.236;-97.118;2022-09-04T16:22:36;31.90;99.90
17774;DHT22;9011;33.236;-97.118;2022-09-04T16:25:20;32.30;99.90
17774;DHT22;9011;33.236;-97.118;2022-09-04T16:27:53;32.60;99.90
17774;DHT22;9011;33.236;-97.118;2022-09-04T16:30:33;32.30;99.90
17774;DHT22;9011;33.236;-97.118;2022-09-04T16:33:04;32.60;99.90
17774;DHT22;9011;33.236;-97.118;2022-09-04T16:35:35;32.50;99.90
17774;DHT22;9011;33.236;-97.118;2022-09-04T16:38:13;32.50;99.90
17774;DHT22;9011;33.236;-97.118;2022-09-04T16:40:46;32.70;99.90
17774;DHT22;9011;33.236;-97.118;2022-09-04T16:43:24;33.00;99.90
17774;DHT22;9011;33.236;-97.118;2022-09-04T16:46:08;32.90;99.90
17774;DHT22;9011;33.236;-97.118;2022-09-04T16:48:50;33.00;99.90
17774;DHT22;9011;33.236;-97.118;2022-09-04T16:51:25;33.00;99.90
17774;DHT22;9011;33.236;-97.118;2022-09-04T16:54:01;33.10;99.90
17774;DHT22;9011;33.236;-97.118;2022-09-04T16:56:37;33.20;99.90
17774;DHT22;9011;33.236;-97.118;2022-09-04T16:59:19;33.10;99.90
17774;DHT22;9011;33.236;-97.118;2022-09-04T17:01:56;33.50;99.90
17774;DHT22;9011;33.236;-97.118;2022-09-04T17:04:34;33.80;99.90
17774;DHT22;9011;33.236;-97.118;2022-09-04T17:07:15;34.10;99.90
17774;DHT22;9011;33.236;-97.118;2022-09-04T17:10:03;33.80;99.90
17774;DHT22;9011;33.236;-97.118;2022-09-04T17:12:53;33.90;99.90
17774;DHT22;9011;33.236;-97.118;2022-09-04T17:15:27;33.90;99.90
17774;DHT22;9011;33.236;-97.118;2022-09-04T17:17:57;34.00;99.90
17774;DHT22;9011;33.236;-97.118;2022-09-04T17:20:28;33.70;99.90
17774;DHT22;9011;33.236;-97.118;2022-09-04T17:23:08;33.70;99.90
17774;DHT22;9011;33.236;-97.118;2022-09-04T17:25:46;34.00;99.90
17774;DHT22;9011;33.236;-97.118;2022-09-04T17:28:37;33.90;99.90
17774;DHT22;9011;33.236;-97.118;2022-09-04T17:31:12;34.10;99.90
17774;DHT22;9011;33.236;-97.118;2022-09-04T17:33:47;34.20;99.90
17774;DHT22;9011;33.236;-97.118;2022-09-04T17:36:27;34.40;99.90
17774;DHT22;9011;33.236;-97.118;2022-09-04T17:39:03;34.30;99.90
17774;DHT22;9011;33.236;-97.118;2022-09-04T17:41:41;33.90;99.90
17774;DHT22;9011;33.236;-97.118;2022-09-04T17:44:22;34.10;99.90
17774;DHT22;9011;33.236;-97.118;2022-09-04T17:47:05;34.40;99.90
17774;DHT22;9011;33.236;-97.118;2022-09-04T17:49:39;34.00;99.90
17774;DHT22;9011;33.236;-97.118;2022-09-04T17:52:10;33.90;99.90
17774;DHT22;9011;33.236;-97.118;2022-09-04T17:54:48;34.00;99.90
17774;DHT22;9011;33.236;-97.118;2022-09-04T17:57:24;34.00;99.90
17774;DHT22;9011;33.236;-97.118;2022-09-04T18:00:01;34.00;99.90
17774;DHT22;9011;33.236;-97.118;2022-09-04T18:02:38;34.00;99.90
17774;DHT22;9011;33.236;-97.118;2022-09-04T18:05:16;34.10;99.90
17774;DHT22;9011;33.236;-97.118;2022-09-04T18:07:50;34.20;99.90
17774;DHT22;9011;33.236;-97.118;2022-09-04T18:10:27;34.30;99.90
17774;DHT22;9011;33.236;-97.118;2022-09-04T18:13:06;34.60;99.90
17774;DHT22;9011;33.236;-97.118;2022-09-04T18:15:55;34.70;99.90
17774;DHT22;9011;33.236;-97.118;2022-09-04T18:18:37;34.90;99.90
17774;DHT22;9011;33.236;-97.118;2022-09-04T18:21:14;34.60;99.90
17774;DHT22;9011;33.236;-97.118;2022-09-04T18:23:58;34.30;99.90
17774;DHT22;9011;33.236;-97.118;2022-09-04T18:26:34;33.70;99.90
17774;DHT22;9011;33.236;-97.118;2022-09-04T18:29:21;32.50;99.90
17774;DHT22;9011;33.236;-97.118;2022-09-04T18:32:00;32.30;99.90
17774;DHT22;9011;33.236;-97.118;2022-09-04T18:34:36;31.70;99.90
17774;DHT22;9011;33.236;-97.118;2022-09-04T18:37:12;31.20;99.90
17774;DHT22;9011;33.236;-97.118;2022-09-04T18:39:48;31.00;99.90
17774;DHT22;9011;33.236;-97.118;2022-09-04T18:42:27;30.70;99.90
17774;DHT22;9011;33.236;-97.118;2022-09-04T18:45:02;30.80;99.90
17774;DHT22;9011;33.236;-97.118;2022-09-04T18:47:45;31.10;99.90
17774;DHT22;9011;33.236;-97.118;2022-09-04T18:50:25;30.90;99.90